PST,Max TemperatureF,Mean TemperatureF,Min TemperatureF,Max Dew PointF,MeanDew PointF,Min DewpointF,Max Humidity, Mean Humidity, Min Humidity, Max Sea Level PressureIn, Mean Sea Level PressureIn, Min Sea Level PressureIn, Max VisibilityMiles, Mean VisibilityMiles, Min VisibilityMiles, Max Wind SpeedMPH, Mean Wind SpeedMPH, Max Gust SpeedMPH,PrecipitationIn, CloudCover, Events, WindDirDegrees
2013-1-1,41,38,36,36,34,32,93,82,76,30.51,30.44,30.36,10,10,10,8,5,,0.00,7,,126
2013-1-2,43,36,30,33,31,27,96,86,60,30.34,30.27,30.20,10,10,8,7,4,,0.00,1,,141
2013-1-3,41,34,26,34,30,25,96,84,65,30.19,30.11,30.06,10,10,7,12,4,,0.00,4,Rain,223
2013-1-4,45,40,36,40,38,34,96,88,76,30.29,30.21,30.09,10,10,10,8,4,,0.00,7,Rain,154
2013-1-5,46,42,37,43,40,36,97,90,81,30.17,30.10,30.05,10,10,4,12,5,,0.00,6,Rain,253
2013-1-6,44,40,35,39,37,33,97,89,79,30.14,30.06,29.89,10,10,10,7,3,,0.00,7,Rain,222
2013-1-7,53,46,39,45,39,34,97,80,61,30.13,29.93,29.77,10,10,10,16,4,25,0.00,5,Rain,270
2013-1-8,48,44,39,46,39,34,100,87,68,30.14,29.87,29.63,10,8,3,9,4,,0.90,8,Rain,180
2013-1-9,46,38,30,42,35,28,93,84,76,29.92,29.78,29.68,10,10,5,20,9,33,0.17,5,Rain,268
2013-1-10,39,36,32,34,31,28,93,85,65,30.15,30.07,29.93,10,8,1,10,6,,0.08,7,Rain-Snow,189
2013-1-11,39,34,28,31,24,18,92,71,43,30.33,30.27,30.16,10,10,10,9,4,,0.00,3,,145
2013-1-12,37,32,28,28,24,21,85,74,64,30.45,30.38,30.32,10,10,10,7,5,,0.00,4,,110
2013-1-13,37,32,27,30,26,22,89,77,67,30.48,30.46,30.43,10,10,10,10,10,,0.00,4,,230
2013-1-14,42,38,34,36,33,29,93,84,73,30.56,30.49,30.44,10,10,10,6,2,,0.00,8,Rain,235
2013-1-15,44,36,28,37,32,27,96,86,65,30.71,30.66,30.57,10,10,10,5,2,,0.00,6,,185
2013-1-16,42,34,27,34,32,26,96,84,73,30.69,30.61,30.53,10,10,10,9,6,,0.00,7,,137
2013-1-17,41,36,30,36,33,29,100,90,82,30.55,30.38,30.28,10,9,2,7,5,,0.00,5,,134
2013-1-18,39,36,34,36,35,33,100,92,86,30.35,30.30,30.26,10,7,0,8,6,,0.00,8,Fog,153
2013-1-19,41,36,30,35,34,30,100,88,79,30.39,30.36,30.34,10,10,6,9,7,,0.00,6,,131
2013-1-20,42,36,30,37,35,29,100,93,82,30.40,30.34,30.27,10,8,2,9,6,,0.00,6,,131
2013-1-21,39,37,35,36,35,33,97,94,86,30.27,30.21,30.13,10,4,0,9,6,,0.00,8,Fog,136
2013-1-22,37,36,35,35,34,33,93,88,83,30.13,30.03,29.93,10,10,10,6,3,,0.00,7,,150
2013-1-23,45,41,37,41,37,33,97,87,74,30.11,29.90,29.82,10,10,3,13,3,20,0.01,7,Rain,237
2013-1-24,43,38,32,39,35,30,100,88,73,30.18,30.06,29.96,10,9,2,9,5,,0.00,6,Rain,234
2013-1-25,51,40,30,42,35,30,97,88,61,30.04,29.98,29.87,10,10,2,10,4,,0.00,3,Rain,164
2013-1-26,45,40,35,40,37,33,97,88,80,30.02,29.90,29.82,10,10,10,9,5,,0.00,7,Rain,265
2013-1-27,43,40,37,39,36,32,97,82,70,30.02,29.99,29.97,10,10,8,10,5,,0.01,7,Rain,242
2013-1-28,48,42,39,38,36,33,86,75,65,30.08,30.03,30.00,10,10,10,18,12,30,0.00,8,Rain,266
2013-1-29,50,47,44,43,41,37,93,81,66,30.31,30.25,30.08,10,10,10,20,9,26,0.00,8,Rain,214
2013-1-30,48,46,44,46,44,41,97,91,83,30.38,30.35,30.31,10,8,2,12,3,,0.00,8,Rain,266
2013-1-31,51,48,44,46,44,41,93,88,80,30.37,30.31,30.28,10,10,7,12,5,,0.00,8,Rain,296